Donnellson, Iowa
Current Conditions -  °F | °C
As of 6:35 PM on Friday 26 Dec 2014 (Local Time) from KFSW Reporting Station
NA  
Wind Chill: 52°   Ceiling: NA
Heat Index: 52°   Visibility: 10mi
Dew Point: 45°   Wind: 0mph
Humidity: 76%   Direction: NA
Pressure: 29.97"   Gusts: NA
Location:  40.64°N, 91.56°W
Report Text: KFSW 270035Z AUTO 00000KT 10SM 11/07 A2997 RMK AO2
Loading
Personal Weather Stations






























Interactive Weather Map New forecast layout! Learn more

10-Day Weather Forecast

Advertisements
Track Severe Weather on mobile